Time;durP1;ratioP1;P1;durP2;ratioP2;P2;SDS_P1;SDS_P2;PMS_P1;PMS_P2;Temp;Humidity;BMP_temperature;BMP_pressure;BME280_temperature;BME280_humidity;BME280_pressure;Samples;Min_cycle;Max_cycle;Signal;HPM_P1;HPM_P2
2021/12/05 00:24:10;;;;;;;79.20;33.70;;;;;;;;;;6202493;28;20148;-72
2021/12/05 00:27:20;;;;;;;84.88;34.80;;;;;;;;;;6207374;28;20085;-73
2021/12/05 01:04:08;;;;;;;91.03;36.58;;;;;;;;;;6211875;28;20144;-74
2021/12/05 01:07:18;;;;;;;94.07;36.08;;;;;;;;;;6213888;28;20101;-70
2021/12/05 01:13:35;;;;;;;152.82;50.95;;;;;;;;;;6212568;28;20054;-70
2021/12/05 01:16:38;;;;;;;123.45;43.45;;;;;;;;;;6213399;28;20236;-73
2021/12/05 01:19:39;;;;;;;105.45;39.28;;;;;;;;;;6205825;28;20046;-65
2021/12/05 01:22:46;;;;;;;92.78;36.17;;;;;;;;;;6206531;28;20073;-67
2021/12/05 01:29:08;;;;;;;75.13;34.28;;;;;;;;;;6206492;28;20061;-74
2021/12/05 01:32:42;;;;;;;93.85;37.45;;;;;;;;;;6206742;28;20072;-66
2021/12/05 01:35:54;;;;;;;107.57;40.15;;;;;;;;;;6205680;28;20050;-66
2021/12/05 01:39:06;;;;;;;102.47;38.35;;;;;;;;;;6202931;28;20046;-66
2021/12/05 01:52:12;;;;;;;84.90;35.47;;;;;;;;;;6202889;28;20091;-66
2021/12/05 01:59:01;;;;;;;34.08;14.27;;;;;;;;;;6205485;28;20046;-70
2021/12/05 02:02:34;;;;;;;30.38;13.65;;;;;;;;;;6205041;28;20989;-66
2021/12/05 02:31:41;;;;;;;30.00;14.68;;;;;;;;;;6208149;28;20547;-68
2021/12/05 02:41:25;;;;;;;45.67;20.60;;;;;;;;;;6207477;28;20115;-67
2021/12/05 02:44:25;;;;;;;46.05;21.83;;;;;;;;;;6206348;28;20058;-73
2021/12/05 02:47:27;;;;;;;47.80;22.35;;;;;;;;;;6206020;28;20054;-68
2021/12/05 02:50:30;;;;;;;48.47;22.73;;;;;;;;;;6205045;28;21078;-68
2021/12/05 02:53:45;;;;;;;43.22;20.80;;;;;;;;;;6208278;28;20137;-67
2021/12/05 02:56:50;;;;;;;48.40;22.13;;;;;;;;;;6205714;28;20491;-65
2021/12/05 02:59:55;;;;;;;51.88;23.48;;;;;;;;;;6203004;28;20046;-73
2021/12/05 03:02:57;;;;;;;49.03;23.58;;;;;;;;;;6202905;28;20716;-69
2021/12/05 03:06:05;;;;;;;48.65;23.25;;;;;;;;;;6206955;28;20042;-73
2021/12/05 03:09:12;;;;;;;44.00;21.65;;;;;;;;;;6199518;28;20042;-67
2021/12/05 03:12:18;;;;;;;47.53;22.13;;;;;;;;;;6205253;28;20156;-71
2021/12/05 03:15:20;;;;;;;44.53;21.27;;;;;;;;;;6207178;28;20058;-72
2021/12/05 03:18:21;;;;;;;;;;;;;;;;;;6202318;28;20600;-73
2021/12/05 03:21:22;;;;;;;41.03;19.27;;;;;;;;;;6203781;28;19929;-72
2021/12/05 03:24:24;;;;;;;40.63;19.67;;;;;;;;;;6200256;28;20133;-69
2021/12/05 03:27:25;;;;;;;35.67;17.30;;;;;;;;;;6204759;28;20077;-63
2021/12/05 03:30:27;;;;;;;32.72;15.38;;;;;;;;;;6204891;28;20511;-64
2021/12/05 03:33:28;;;;;;;34.37;15.77;;;;;;;;;;6204034;28;20062;-72
2021/12/05 03:36:29;;;;;;;27.85;15.40;;;;;;;;;;6205223;28;20137;-62
2021/12/05 03:39:30;;;;;;;28.05;14.35;;;;;;;;;;6201739;28;20091;-66
2021/12/05 03:42:31;;;;;;;31.30;15.23;;;;;;;;;;6202464;28;20052;-64
2021/12/05 03:45:37;;;;;;;29.75;14.63;;;;;;;;;;6204426;28;20053;-64
2021/12/05 03:48:45;;;;;;;31.90;14.77;;;;;;;;;;6204507;28;20429;-69
2021/12/05 03:51:50;;;;;;;31.30;15.60;;;;;;;;;;6204063;28;20053;-71
2021/12/05 03:54:52;;;;;;;32.10;15.57;;;;;;;;;;6204486;28;20054;-72
2021/12/05 03:57:53;;;;;;;31.80;16.25;;;;;;;;;;6201805;28;20172;-66
2021/12/05 04:00:56;;;;;;;28.92;15.25;;;;;;;;;;6206951;28;20065;-68
2021/12/05 04:03:58;;;;;;;30.42;15.60;;;;;;;;;;6201184;28;20047;-73
2021/12/05 04:07:00;;;;;;;34.25;16.48;;;;;;;;;;6204019;28;20053;-70
2021/12/05 04:10:01;;;;;;;31.63;15.63;;;;;;;;;;6204271;28;20053;-65
2021/12/05 04:13:02;;;;;;;37.30;17.05;;;;;;;;;;6200529;28;20053;-70
2021/12/05 04:16:04;;;;;;;32.83;17.15;;;;;;;;;;6206350;28;20054;-69
2021/12/05 04:19:06;;;;;;;31.30;16.00;;;;;;;;;;6203230;28;20141;-68
2021/12/05 04:22:08;;;;;;;34.30;17.52;;;;;;;;;;6203763;28;20056;-73
2021/12/05 04:25:11;;;;;;;37.80;18.05;;;;;;;;;;6205636;28;20046;-68
2021/12/05 04:28:12;;;;;;;32.30;17.10;;;;;;;;;;6194867;28;20057;-63
2021/12/05 04:31:15;;;;;;;34.72;17.95;;;;;;;;;;6191677;28;20046;-67
2021/12/05 04:34:16;;;;;;;38.28;19.48;;;;;;;;;;6211005;28;20054;-73
2021/12/05 04:37:17;;;;;;;40.80;19.60;;;;;;;;;;6217699;28;20412;-70
2021/12/05 04:40:18;;;;;;;41.35;20.08;;;;;;;;;;6201816;28;20057;-65
2021/12/05 04:43:19;;;;;;;43.20;20.13;;;;;;;;;;6203891;28;20097;-62
2021/12/05 04:46:23;;;;;;;46.78;21.27;;;;;;;;;;6204066;28;20168;-67
2021/12/05 04:49:24;;;;;;;52.03;24.10;;;;;;;;;;6204149;28;20053;-60
2021/12/05 04:52:25;;;;;;;49.08;23.83;;;;;;;;;;6198849;28;20129;-71
2021/12/05 04:55:26;;;;;;;46.55;22.27;;;;;;;;;;6204711;28;20057;-64
2021/12/05 04:58:26;;;;;;;45.67;21.65;;;;;;;;;;6202222;28;20600;-67
2021/12/05 05:01:29;;;;;;;43.97;19.95;;;;;;;;;;6201008;28;20145;-73
2021/12/05 05:04:36;;;;;;;49.47;22.52;;;;;;;;;;6205780;28;20524;-70
2021/12/05 05:07:39;;;;;;;42.03;20.88;;;;;;;;;;6207516;28;20065;-73
2021/12/05 05:10:40;;;;;;;45.13;19.92;;;;;;;;;;6199204;28;20448;-71
2021/12/05 05:13:41;;;;;;;39.65;18.60;;;;;;;;;;6199739;28;20050;-74
2021/12/05 05:16:43;;;;;;;39.50;19.75;;;;;;;;;;6204356;28;20156;-70
2021/12/05 05:19:49;;;;;;;40.53;19.50;;;;;;;;;;6203864;28;20153;-67
2021/12/05 05:48:48;;;;;;;28.83;16.10;;;;;;;;;;6200031;28;20428;-67
2021/12/05 05:51:50;;;;;;;42.63;21.35;;;;;;;;;;6199623;28;20046;-73
2021/12/05 05:54:52;;;;;;;35.60;17.83;;;;;;;;;;6203084;28;20460;-70
2021/12/05 06:01:05;;;;;;;25.65;13.30;;;;;;;;;;6200515;28;19926;-72
2021/12/05 06:04:07;;;;;;;23.48;12.90;;;;;;;;;;6201058;28;20577;-67
2021/12/05 06:07:09;;;;;;;27.77;16.17;;;;;;;;;;6206791;28;20148;-72
2021/12/05 06:10:12;;;;;;;28.00;15.50;;;;;;;;;;6205618;28;20144;-68
2021/12/05 06:13:15;;;;;;;27.77;14.60;;;;;;;;;;6206766;28;20046;-70
2021/12/05 06:16:16;;;;;;;26.83;13.57;;;;;;;;;;6202828;28;20062;-73
2021/12/05 06:19:17;;;;;;;34.77;17.13;;;;;;;;;;6209540;28;20381;-72
2021/12/05 06:22:18;;;;;;;39.72;20.77;;;;;;;;;;6205526;28;20053;-64
2021/12/05 06:25:23;;;;;;;49.33;22.48;;;;;;;;;;6206589;28;20594;-63
2021/12/05 06:28:56;;;;;;;60.42;26.20;;;;;;;;;;6202003;28;20482;-65
2021/12/05 06:32:14;;;;;;;65.63;29.25;;;;;;;;;;6206030;28;20132;-65
2021/12/05 06:48:10;;;;;;;102.75;41.63;;;;;;;;;;6203189;28;20042;-63
2021/12/05 06:51:18;;;;;;;99.97;41.78;;;;;;;;;;6208499;28;20531;-63
2021/12/05 06:54:19;;;;;;;84.50;39.03;;;;;;;;;;6205060;28;20046;-67
2021/12/05 06:57:19;;;;;;;103.40;46.53;;;;;;;;;;6202255;28;20045;-65
2021/12/05 07:00:24;;;;;;;100.78;43.03;;;;;;;;;;6201776;28;20593;-71
2021/12/05 07:03:25;;;;;;;104.20;42.65;;;;;;;;;;6204285;28;20404;-66
2021/12/05 07:06:28;;;;;;;137.48;52.40;;;;;;;;;;6201453;28;20046;-66
2021/12/05 07:09:29;;;;;;;203.23;75.97;;;;;;;;;;6202973;28;20484;-64
2021/12/05 07:19:07;;;;;;;265.30;84.35;;;;;;;;;;6203477;28;20152;-65
2021/12/05 07:25:46;;;;;;;246.10;73.95;;;;;;;;;;6190395;28;20141;-67
2021/12/05 07:42:04;;;;;;;262.08;81.53;;;;;;;;;;6205893;28;20042;-69
2021/12/05 07:45:12;;;;;;;283.50;92.70;;;;;;;;;;6208722;28;20046;-61
2021/12/05 07:48:19;;;;;;;294.33;93.75;;;;;;;;;;6208275;28;20054;-64
2021/12/05 07:57:31;;;;;;;260.40;94.47;;;;;;;;;;6202878;28;20473;-62
2021/12/05 08:17:15;;;;;;;38.30;19.85;;;;;;;;;;6206329;28;20052;-70
2021/12/05 08:20:17;;;;;;;53.90;22.20;;;;;;;;;;6201410;28;20058;-67
2021/12/05 08:23:18;;;;;;;38.90;20.13;;;;;;;;;;6205163;28;20065;-61
2021/12/05 08:26:31;;;;;;;42.85;21.45;;;;;;;;;;6210480;28;20074;-66
2021/12/05 08:29:58;;;;;;;48.85;21.83;;;;;;;;;;6204462;28;20097;-62
2021/12/05 08:36:36;;;;;;;36.00;17.77;;;;;;;;;;6206301;28;20396;-61
2021/12/05 09:38:49;;;;;;;32.05;15.63;;;;;;;;;;6198792;28;20092;-65
2021/12/05 10:38:12;;;;;;;28.02;14.73;;;;;;;;;;6195097;28;20497;-61
2021/12/05 10:44:17;;;;;;;27.33;15.05;;;;;;;;;;6201311;28;20061;-64
2021/12/05 10:47:36;;;;;;;29.58;15.68;;;;;;;;;;6198018;28;20042;-63
2021/12/05 10:50:43;;;;;;;30.92;15.88;;;;;;;;;;6197983;28;20046;-61
2021/12/05 10:53:53;;;;;;;28.80;15.63;;;;;;;;;;6201508;28;20050;-61
2021/12/05 10:57:00;;;;;;;32.70;17.25;;;;;;;;;;6199982;28;20741;-61
2021/12/05 11:00:13;;;;;;;33.75;19.15;;;;;;;;;;6193975;28;20573;-71
2021/12/05 11:03:19;;;;;;;58.95;28.88;;;;;;;;;;6191506;28;20058;-68
2021/12/05 11:06:31;;;;;;;35.78;20.58;;;;;;;;;;6190450;28;20125;-62
2021/12/05 11:09:35;;;;;;;30.02;15.90;;;;;;;;;;6193215;28;20521;-64
2021/12/05 11:12:36;;;;;;;29.73;16.10;;;;;;;;;;6192864;28;20086;-67
2021/12/05 11:15:37;;;;;;;35.78;18.42;;;;;;;;;;6191445;28;20588;-61
2021/12/05 11:18:44;;;;;;;32.72;17.92;;;;;;;;;;6193599;28;20077;-62
2021/12/05 11:21:48;;;;;;;33.17;16.70;;;;;;;;;;6190542;28;20738;-69
2021/12/05 11:25:10;;;;;;;33.58;16.90;;;;;;;;;;6188300;28;20077;-66
2021/12/05 11:28:16;;;;;;;31.65;15.82;;;;;;;;;;6191846;28;20442;-69
2021/12/05 11:31:29;;;;;;;34.25;16.92;;;;;;;;;;6194394;28;21285;-66
2021/12/05 11:34:30;;;;;;;37.90;17.85;;;;;;;;;;6191111;28;20129;-60
2021/12/05 11:37:47;;;;;;;35.03;18.13;;;;;;;;;;6193829;28;20523;-66
2021/12/05 11:41:06;;;;;;;35.95;16.75;;;;;;;;;;6188584;28;20050;-66
2021/12/05 11:44:07;;;;;;;35.33;17.00;;;;;;;;;;6189424;28;20425;-61
2021/12/05 11:47:14;;;;;;;33.95;17.08;;;;;;;;;;6185944;28;20076;-62
2021/12/05 11:50:18;;;;;;;34.78;17.50;;;;;;;;;;6194249;28;20054;-71
2021/12/05 11:53:38;;;;;;;33.70;17.20;;;;;;;;;;6191903;28;20090;-61
2021/12/05 11:57:02;;;;;;;31.17;16.23;;;;;;;;;;6187170;28;20104;-63
2021/12/05 12:00:17;;;;;;;32.03;17.45;;;;;;;;;;6189538;28;20186;-66
2021/12/05 12:03:35;;;;;;;34.45;18.27;;;;;;;;;;6190125;28;20088;-61
2021/12/05 12:06:36;;;;;;;32.92;17.67;;;;;;;;;;6185323;28;20820;-64
2021/12/05 12:09:38;;;;;;;34.95;18.35;;;;;;;;;;6190688;28;20081;-69
2021/12/05 12:12:46;;;;;;;34.47;16.83;;;;;;;;;;6186667;28;20045;-69
2021/12/05 12:15:58;;;;;;;35.35;18.25;;;;;;;;;;6187226;28;20050;-67
2021/12/05 12:19:00;;;;;;;30.33;15.70;;;;;;;;;;6187763;28;20474;-64
2021/12/05 12:22:03;;;;;;;34.10;17.60;;;;;;;;;;6192509;28;20101;-62
2021/12/05 12:25:12;;;;;;;38.10;17.60;;;;;;;;;;6195465;28;20546;-61
2021/12/05 12:28:16;;;;;;;36.88;18.80;;;;;;;;;;6188347;28;20086;-63
2021/12/05 12:31:32;;;;;;;45.17;19.95;;;;;;;;;;6190545;28;20054;-66
2021/12/05 12:34:33;;;;;;;38.28;19.25;;;;;;;;;;6190766;28;20098;-63
2021/12/05 12:37:54;;;;;;;35.10;16.83;;;;;;;;;;6190569;28;20601;-69
2021/12/05 12:41:10;;;;;;;31.58;15.77;;;;;;;;;;6194154;28;20061;-64
2021/12/05 12:44:13;;;;;;;33.22;16.88;;;;;;;;;;6191419;28;20042;-69
2021/12/05 12:47:14;;;;;;;30.02;14.82;;;;;;;;;;6191150;28;20058;-67
2021/12/05 12:50:35;;;;;;;30.85;16.38;;;;;;;;;;6194004;28;20065;-63
2021/12/05 12:53:38;;;;;;;53.03;32.67;;;;;;;;;;6195736;28;20129;-63
2021/12/05 12:56:40;;;;;;;45.88;24.45;;;;;;;;;;6188101;28;20413;-63
2021/12/05 12:59:55;;;;;;;27.80;15.30;;;;;;;;;;6187855;28;20140;-68
2021/12/05 13:03:02;;;;;;;27.92;14.23;;;;;;;;;;6187569;28;20050;-62
2021/12/05 13:13:28;;;;;;;28.05;13.80;;;;;;;;;;6131910;28;20096;-64
2021/12/05 13:16:32;;;;;;;27.65;13.57;;;;;;;;;;6134585;28;20091;-61
2021/12/05 13:19:32;;;;;;;27.75;14.10;;;;;;;;;;6185490;28;20054;-63
2021/12/05 13:22:33;;;;;;;27.17;15.18;;;;;;;;;;6187902;28;20058;-66
2021/12/05 13:26:04;;;;;;;23.80;13.52;;;;;;;;;;6190900;28;20069;-68
2021/12/05 13:29:23;;;;;;;25.83;13.95;;;;;;;;;;6191609;28;20201;-59
2021/12/05 13:32:34;;;;;;;25.73;13.52;;;;;;;;;;6188009;28;20065;-67
2021/12/05 13:35:43;;;;;;;26.17;14.00;;;;;;;;;;6181651;28;20161;-68
2021/12/05 13:38:44;;;;;;;26.45;14.40;;;;;;;;;;6187147;28;20050;-67
2021/12/05 13:42:00;;;;;;;25.73;13.02;;;;;;;;;;6192593;28;20074;-66
2021/12/05 13:45:09;;;;;;;24.70;13.35;;;;;;;;;;6189913;28;20061;-61
2021/12/05 13:48:25;;;;;;;26.40;13.55;;;;;;;;;;6184211;28;20046;-64
2021/12/05 13:51:26;;;;;;;25.42;14.07;;;;;;;;;;6186156;28;20149;-67
2021/12/05 13:54:28;;;;;;;26.75;15.13;;;;;;;;;;6185713;28;20058;-66
2021/12/05 13:57:29;;;;;;;;;;;;;;;;;;6185183;28;20492;-67
2021/12/05 14:00:47;;;;;;;28.63;14.88;;;;;;;;;;6189756;28;20035;-64
2021/12/05 14:04:09;;;;;;;28.30;15.90;;;;;;;;;;6191781;28;20153;-64
2021/12/05 14:07:10;;;;;;;32.53;17.25;;;;;;;;;;6188815;28;20104;-66
2021/12/05 14:10:13;;;;;;;34.75;16.75;;;;;;;;;;6187611;28;20046;-69
2021/12/05 14:13:13;;;;;;;34.13;17.63;;;;;;;;;;6191914;28;20053;-69
2021/12/05 14:16:14;;;;;;;32.30;18.08;;;;;;;;;;6192182;28;20054;-65
2021/12/05 14:19:18;;;;;;;36.78;19.50;;;;;;;;;;6190879;28;21607;-66
2021/12/05 14:22:21;;;;;;;35.00;19.80;;;;;;;;;;6188850;28;20053;-65
2021/12/05 14:25:25;;;;;;;41.17;23.52;;;;;;;;;;6193151;28;20065;-59
2021/12/05 14:28:26;;;;;;;43.63;23.85;;;;;;;;;;6192506;28;20081;-65
2021/12/05 14:31:31;;;;;;;34.75;18.80;;;;;;;;;;6193883;28;20058;-66
2021/12/05 14:34:33;;;;;;;36.88;18.55;;;;;;;;;;6191680;28;20145;-61
2021/12/05 14:37:35;;;;;;;37.90;19.98;;;;;;;;;;6189296;28;20043;-62
2021/12/05 14:40:37;;;;;;;;;;;;;;;;;;6189633;28;20160;-61
2021/12/05 14:43:37;;;;;;;34.08;17.88;;;;;;;;;;6194952;28;19952;-60
2021/12/05 14:46:58;;;;;;;31.38;17.35;;;;;;;;;;6189227;28;20137;-61
2021/12/05 14:50:06;;;;;;;41.58;22.15;;;;;;;;;;6197550;28;20053;-62
2021/12/05 14:53:10;;;;;;;73.53;33.78;;;;;;;;;;6193562;28;20081;-64
2021/12/05 14:56:10;;;;;;;140.27;53.40;;;;;;;;;;6191633;28;20046;-62
2021/12/05 14:59:13;;;;;;;86.38;35.97;;;;;;;;;;6194236;28;20077;-60
2021/12/05 15:02:16;;;;;;;44.60;22.85;;;;;;;;;;6188396;28;20058;-64
2021/12/05 15:05:18;;;;;;;37.40;20.20;;;;;;;;;;6191789;28;20136;-61
2021/12/05 15:08:22;;;;;;;48.83;23.35;;;;;;;;;;6195611;28;20050;-59
2021/12/05 15:11:22;;;;;;;51.22;24.02;;;;;;;;;;6191593;28;20508;-64
2021/12/05 15:14:26;;;;;;;84.20;31.70;;;;;;;;;;6190837;28;20066;-64
2021/12/05 15:17:39;;;;;;;70.70;28.92;;;;;;;;;;6190828;28;20054;-62
2021/12/05 15:20:39;;;;;;;64.60;27.20;;;;;;;;;;6188176;28;20489;-61
2021/12/05 15:23:41;;;;;;;64.65;27.67;;;;;;;;;;6188643;28;20038;-60
2021/12/05 15:26:41;;;;;;;42.10;21.60;;;;;;;;;;6192546;28;20077;-64
2021/12/05 15:29:47;;;;;;;44.40;21.13;;;;;;;;;;6193456;28;20157;-64
2021/12/05 15:32:55;;;;;;;52.28;23.30;;;;;;;;;;6189688;28;20081;-60
2021/12/05 15:35:58;;;;;;;57.55;25.05;;;;;;;;;;6187364;28;20137;-59
2021/12/05 15:39:11;;;;;;;47.70;23.85;;;;;;;;;;6194617;28;20381;-60
2021/12/05 15:42:40;;;;;;;45.67;23.25;;;;;;;;;;6197892;28;20141;-60
2021/12/05 15:45:43;;;;;;;50.97;26.08;;;;;;;;;;6187327;28;20050;-60
2021/12/05 15:48:48;;;;;;;50.78;24.45;;;;;;;;;;6190196;28;20062;-60
2021/12/05 15:51:51;;;;;;;89.95;35.72;;;;;;;;;;6189711;28;20168;-60
2021/12/05 15:54:52;;;;;;;107.85;42.10;;;;;;;;;;6192435;28;20056;-60
2021/12/05 15:58:03;;;;;;;200.88;73.45;;;;;;;;;;6194444;28;20493;-59
2021/12/05 16:01:24;;;;;;;214.38;89.93;;;;;;;;;;6189846;28;20128;-60
2021/12/05 16:04:25;;;;;;;61.58;30.55;;;;;;;;;;6186343;28;20888;-60
2021/12/05 16:07:29;;;;;;;120.60;61.28;;;;;;;;;;6186524;28;20050;-60
2021/12/05 16:10:32;;;;;;;212.82;88.43;;;;;;;;;;6188236;28;20048;-59
2021/12/05 16:13:41;;;;;;;154.30;61.63;;;;;;;;;;6194684;28;20050;-60
2021/12/05 16:16:42;;;;;;;112.38;44.47;;;;;;;;;;6191140;28;20881;-59
2021/12/05 16:20:16;;;;;;;125.72;52.92;;;;;;;;;;6196780;28;20050;-62
2021/12/05 16:23:30;;;;;;;120.55;54.45;;;;;;;;;;6196596;28;20065;-61
2021/12/05 16:26:32;;;;;;;70.53;33.05;;;;;;;;;;6192480;28;20077;-60
2021/12/05 16:29:36;;;;;;;60.38;32.08;;;;;;;;;;6196006;28;20057;-60
2021/12/05 16:32:39;;;;;;;42.78;23.20;;;;;;;;;;6192826;28;20054;-66
2021/12/05 16:35:46;;;;;;;52.85;28.48;;;;;;;;;;6189832;28;20535;-66
2021/12/05 16:38:50;;;;;;;55.63;33.17;;;;;;;;;;6191740;28;20124;-65
2021/12/05 16:41:54;;;;;;;54.08;29.52;;;;;;;;;;6195670;28;20159;-67
2021/12/05 16:44:59;;;;;;;44.30;23.63;;;;;;;;;;6193993;28;20050;-67
2021/12/05 16:47:59;;;;;;;48.47;25.40;;;;;;;;;;6190177;28;20442;-67
2021/12/05 16:51:20;;;;;;;48.35;25.02;;;;;;;;;;6196455;28;20046;-67
2021/12/05 16:54:29;;;;;;;47.03;23.08;;;;;;;;;;6190583;28;20050;-60
2021/12/05 16:57:40;;;;;;;50.25;24.88;;;;;;;;;;6193273;28;20097;-62
2021/12/05 17:00:44;;;;;;;42.75;22.25;;;;;;;;;;6187960;28;20045;-65
2021/12/05 17:03:46;;;;;;;78.60;34.42;;;;;;;;;;6185721;28;20077;-63
2021/12/05 17:06:52;;;;;;;;;;;;;;;;;;6189056;28;20068;-62
2021/12/05 17:09:53;;;;;;;198.70;77.63;;;;;;;;;;6184619;28;20426;-66
2021/12/05 17:13:22;;;;;;;134.90;58.53;;;;;;;;;;6186200;28;20050;-62
2021/12/05 17:16:28;;;;;;;64.18;29.23;;;;;;;;;;6184006;28;20058;-59
2021/12/05 17:19:30;;;;;;;63.92;29.80;;;;;;;;;;6192585;28;20548;-63
2021/12/05 17:22:31;;;;;;;59.38;28.92;;;;;;;;;;6192398;28;20132;-59
2021/12/05 17:25:33;;;;;;;59.95;29.38;;;;;;;;;;6191130;28;20493;-60
2021/12/05 17:28:40;;;;;;;55.50;27.55;;;;;;;;;;6191914;28;20519;-62
2021/12/05 17:31:48;;;;;;;51.28;25.23;;;;;;;;;;6194117;28;20714;-62
2021/12/05 17:34:52;;;;;;;56.10;27.52;;;;;;;;;;6193365;28;20057;-59
2021/12/05 17:37:54;;;;;;;49.45;24.15;;;;;;;;;;6187958;28;20085;-59
2021/12/05 17:40:54;;;;;;;50.90;24.45;;;;;;;;;;6188864;28;20404;-59
2021/12/05 17:43:59;;;;;;;48.35;24.02;;;;;;;;;;6188550;28;20531;-63
2021/12/05 17:47:04;;;;;;;47.83;23.83;;;;;;;;;;6188116;28;20053;-67
2021/12/05 17:50:09;;;;;;;49.25;23.98;;;;;;;;;;6191205;28;20060;-63
2021/12/05 17:53:10;;;;;;;46.65;23.77;;;;;;;;;;6189424;28;20625;-61
2021/12/05 17:56:25;;;;;;;48.03;23.65;;;;;;;;;;6186408;28;20041;-65
2021/12/05 17:59:30;;;;;;;46.10;24.77;;;;;;;;;;6190863;28;20058;-62
2021/12/05 18:02:53;;;;;;;48.80;24.05;;;;;;;;;;6190430;28;20082;-65
2021/12/05 18:05:54;;;;;;;45.90;23.70;;;;;;;;;;6192791;28;20169;-61
2021/12/05 18:08:54;;;;;;;52.08;25.17;;;;;;;;;;6195229;28;20424;-66
2021/12/05 18:11:56;;;;;;;47.35;24.92;;;;;;;;;;6192266;28;20153;-62
2021/12/05 18:14:57;;;;;;;52.05;27.15;;;;;;;;;;6190879;28;20066;-68
2021/12/05 18:17:59;;;;;;;56.28;27.23;;;;;;;;;;6192571;28;20048;-62
2021/12/05 18:21:04;;;;;;;57.20;29.93;;;;;;;;;;6191200;28;20049;-66
2021/12/05 18:24:07;;;;;;;53.90;26.65;;;;;;;;;;6191500;28;20339;-62
2021/12/05 18:27:08;;;;;;;44.30;22.73;;;;;;;;;;6186287;28;20054;-64
2021/12/05 18:30:11;;;;;;;54.28;26.58;;;;;;;;;;6194964;28;20413;-66
2021/12/05 18:33:18;;;;;;;56.70;27.88;;;;;;;;;;6194791;28;20046;-64
2021/12/05 18:36:20;;;;;;;62.03;28.13;;;;;;;;;;6193426;28;20050;-70
2021/12/05 18:39:27;;;;;;;54.33;27.10;;;;;;;;;;6193330;28;20050;-65
2021/12/05 18:42:28;;;;;;;55.45;26.95;;;;;;;;;;6191318;28;20468;-65
2021/12/05 18:45:32;;;;;;;54.97;26.45;;;;;;;;;;6186326;28;20050;-66
2021/12/05 18:48:34;;;;;;;53.45;27.05;;;;;;;;;;6191412;28;20057;-63
2021/12/05 18:51:35;;;;;;;50.22;24.50;;;;;;;;;;6189400;28;20197;-70
2021/12/05 18:54:42;;;;;;;43.38;23.27;;;;;;;;;;6191905;28;20084;-67
2021/12/05 18:57:44;;;;;;;55.33;26.13;;;;;;;;;;6189218;28;20881;-67
2021/12/05 19:08:01;;;;;;;56.83;26.90;;;;;;;;;;6151538;28;20859;-60
2021/12/05 19:14:22;;;;;;;54.38;27.15;;;;;;;;;;6197594;28;20061;-60
2021/12/05 19:17:29;;;;;;;61.45;28.00;;;;;;;;;;6185621;28;20291;-67
2021/12/05 19:20:30;;;;;;;62.25;28.98;;;;;;;;;;6190753;28;20050;-62
2021/12/05 19:23:32;;;;;;;62.20;28.30;;;;;;;;;;6186364;28;20073;-65
2021/12/05 19:26:33;;;;;;;65.77;31.13;;;;;;;;;;6185231;28;20089;-66
2021/12/05 19:29:36;;;;;;;64.70;30.95;;;;;;;;;;6188269;28;20440;-60
2021/12/05 19:32:37;;;;;;;70.25;33.08;;;;;;;;;;6195132;28;20062;-66
2021/12/05 19:35:39;;;;;;;77.10;35.17;;;;;;;;;;6188803;28;20112;-66
2021/12/05 19:38:42;;;;;;;79.90;37.42;;;;;;;;;;6187918;28;20058;-65
2021/12/05 19:41:44;;;;;;;86.35;38.20;;;;;;;;;;6191236;28;20058;-61
2021/12/05 19:44:45;;;;;;;86.28;38.38;;;;;;;;;;6186843;28;20056;-61
2021/12/05 19:47:47;;;;;;;86.97;40.65;;;;;;;;;;6184206;28;20289;-63
2021/12/05 19:50:48;;;;;;;;;;;;;;;;;;6190482;28;20053;-62
2021/12/05 19:53:49;;;;;;;84.28;39.72;;;;;;;;;;6190059;28;19937;-65
2021/12/05 19:56:50;;;;;;;92.22;40.40;;;;;;;;;;6186015;28;20053;-66
2021/12/05 19:59:51;;;;;;;88.95;40.65;;;;;;;;;;6186885;28;20049;-65
2021/12/05 20:02:53;;;;;;;89.80;40.75;;;;;;;;;;6187399;28;20049;-67
2021/12/05 20:05:53;;;;;;;101.15;44.95;;;;;;;;;;6186813;28;20846;-68
2021/12/05 20:08:54;;;;;;;162.00;65.30;;;;;;;;;;6191569;28;20054;-67
2021/12/05 20:11:55;;;;;;;137.02;55.78;;;;;;;;;;6190136;28;20547;-67
2021/12/05 20:14:56;;;;;;;117.63;52.00;;;;;;;;;;6186627;28;20637;-64
2021/12/05 20:18:00;;;;;;;89.70;40.72;;;;;;;;;;6185929;28;20050;-61
2021/12/05 20:21:04;;;;;;;70.43;31.80;;;;;;;;;;6187592;28;20045;-61
2021/12/05 20:24:05;;;;;;;75.78;35.22;;;;;;;;;;6190738;28;20054;-62
2021/12/05 20:27:06;;;;;;;78.90;35.15;;;;;;;;;;6189623;28;20054;-61
2021/12/05 20:30:10;;;;;;;82.22;37.58;;;;;;;;;;6192846;28;20093;-62
2021/12/05 20:33:12;;;;;;;84.97;38.75;;;;;;;;;;6191913;28;20835;-61
2021/12/05 20:36:14;;;;;;;93.53;41.07;;;;;;;;;;6194101;28;20068;-61
2021/12/05 20:39:14;;;;;;;94.75;44.45;;;;;;;;;;6195417;28;20054;-61
2021/12/05 20:42:15;;;;;;;101.88;47.60;;;;;;;;;;6194579;28;20135;-61
2021/12/05 20:45:18;;;;;;;116.25;51.35;;;;;;;;;;6188532;28;20058;-61
2021/12/05 20:48:19;;;;;;;126.47;52.28;;;;;;;;;;6188773;28;20061;-61
2021/12/05 20:51:26;;;;;;;185.35;70.13;;;;;;;;;;6186651;28;20103;-61
2021/12/05 20:54:35;;;;;;;171.40;64.60;;;;;;;;;;6187881;28;20525;-61
2021/12/05 20:57:36;;;;;;;129.40;53.20;;;;;;;;;;6181636;28;20085;-60
2021/12/05 21:00:40;;;;;;;124.80;51.58;;;;;;;;;;6190031;28;20501;-61
2021/12/05 21:03:41;;;;;;;125.57;53.03;;;;;;;;;;6189632;28;20056;-63
2021/12/05 21:06:42;;;;;;;133.27;52.08;;;;;;;;;;6185950;28;20050;-61
2021/12/05 21:09:43;;;;;;;113.93;46.72;;;;;;;;;;6188169;28;20080;-61
2021/12/05 21:12:45;;;;;;;92.40;40.33;;;;;;;;;;6185949;28;20053;-60
2021/12/05 21:15:47;;;;;;;93.13;40.67;;;;;;;;;;6184144;28;20058;-62
2021/12/05 21:18:48;;;;;;;95.00;41.08;;;;;;;;;;6185475;28;20057;-61
2021/12/05 21:21:49;;;;;;;94.22;42.67;;;;;;;;;;6186777;28;20050;-61
2021/12/05 21:24:49;;;;;;;94.13;40.17;;;;;;;;;;6186567;28;20115;-64
2021/12/05 21:27:51;;;;;;;94.18;40.22;;;;;;;;;;6184863;28;20084;-61
2021/12/05 21:30:52;;;;;;;89.78;39.65;;;;;;;;;;6185648;28;20406;-61
2021/12/05 21:33:53;;;;;;;94.97;41.80;;;;;;;;;;6183030;28;20050;-62
2021/12/05 21:36:53;;;;;;;90.07;41.40;;;;;;;;;;6186735;28;20915;-64
2021/12/05 21:39:54;;;;;;;93.70;40.25;;;;;;;;;;6189629;28;20105;-66
2021/12/05 21:42:56;;;;;;;88.63;37.85;;;;;;;;;;6190059;28;21961;-63
2021/12/05 21:45:58;;;;;;;104.30;43.95;;;;;;;;;;6190372;28;20088;-60
2021/12/05 21:49:00;;;;;;;86.35;38.15;;;;;;;;;;6192359;28;20420;-60
2021/12/05 21:52:02;;;;;;;85.85;37.97;;;;;;;;;;6195397;28;20042;-60
2021/12/05 21:55:05;;;;;;;91.13;39.33;;;;;;;;;;6192845;28;20050;-61
2021/12/05 21:58:08;;;;;;;84.10;39.38;;;;;;;;;;6192797;28;20085;-61
2021/12/05 22:01:09;;;;;;;83.00;36.85;;;;;;;;;;6192381;28;20054;-61
2021/12/05 22:04:10;;;;;;;87.20;38.47;;;;;;;;;;6192614;28;20141;-61
2021/12/05 22:07:11;;;;;;;80.15;35.60;;;;;;;;;;6187948;28;20060;-61
2021/12/05 22:10:13;;;;;;;88.10;37.08;;;;;;;;;;6191311;28;20061;-62
2021/12/05 22:13:14;;;;;;;74.10;33.90;;;;;;;;;;6191402;28;20424;-61
2021/12/05 22:16:16;;;;;;;84.18;36.60;;;;;;;;;;6151191;28;1214914;-61
2021/12/05 22:19:18;;;;;;;86.38;36.67;;;;;;;;;;6190327;28;20485;-61
2021/12/05 22:22:20;;;;;;;128.35;48.78;;;;;;;;;;6195113;28;20085;-61
2021/12/05 22:25:21;;;;;;;;;;;;;;;;;;6189575;28;20092;-61
2021/12/05 22:28:21;;;;;;;109.65;43.80;;;;;;;;;;6194448;28;20027;-65
2021/12/05 22:31:22;;;;;;;100.35;42.22;;;;;;;;;;6203732;28;20521;-62
2021/12/05 22:34:23;;;;;;;104.68;45.00;;;;;;;;;;6210617;28;20136;-63
2021/12/05 22:37:25;;;;;;;97.10;42.05;;;;;;;;;;6214030;28;20128;-64
2021/12/05 22:40:26;;;;;;;94.28;42.70;;;;;;;;;;6214188;28;20061;-67
2021/12/05 22:43:27;;;;;;;100.83;46.73;;;;;;;;;;6218200;28;20044;-62
2021/12/05 22:46:28;;;;;;;112.80;46.95;;;;;;;;;;6217538;28;20489;-65
2021/12/05 22:49:28;;;;;;;105.10;47.38;;;;;;;;;;6216992;28;20061;-66
2021/12/05 22:52:29;;;;;;;106.05;46.90;;;;;;;;;;6217753;28;20627;-64
2021/12/05 22:55:30;;;;;;;97.80;45.60;;;;;;;;;;6218990;28;20049;-62
2021/12/05 22:58:30;;;;;;;104.03;44.97;;;;;;;;;;6217272;28;20050;-62
2021/12/05 23:01:31;;;;;;;99.10;46.38;;;;;;;;;;6217363;28;20046;-66
2021/12/05 23:04:32;;;;;;;104.65;46.28;;;;;;;;;;6217236;28;20041;-62
2021/12/05 23:07:33;;;;;;;95.97;45.28;;;;;;;;;;6216650;28;20049;-62
2021/12/05 23:10:34;;;;;;;98.57;45.17;;;;;;;;;;6208181;28;20046;-62
2021/12/05 23:13:36;;;;;;;106.10;47.65;;;;;;;;;;6217456;28;20510;-63
2021/12/05 23:16:37;;;;;;;113.78;48.13;;;;;;;;;;6217101;28;20442;-63
2021/12/05 23:19:37;;;;;;;116.00;54.25;;;;;;;;;;6214605;28;20053;-62
2021/12/05 23:22:38;;;;;;;125.55;52.33;;;;;;;;;;6217120;28;20044;-60
2021/12/05 23:25:39;;;;;;;127.50;58.92;;;;;;;;;;6217342;28;20054;-62
2021/12/05 23:28:41;;;;;;;151.47;65.33;;;;;;;;;;6215946;28;20084;-65
2021/12/05 23:31:43;;;;;;;133.10;58.03;;;;;;;;;;6212844;28;20053;-62